ESMS/MMX METAR and TAF weather

Enter ICAO airport designator
Station Type Date Time Source
ESMS METAR 2020/01/18 04:20 UTC NOAA

ESMS 180420Z 23014KT 9999 BKN010 BKN020 OVC037 06/05 Q1012 R17/19//95


Station Type Date Time Source
ESMS Decoded METAR 2020/01/18 04:20 UTC NOAA

Malmo / Sturup, Sweden (ESMS) 55-33N 013-22E
Jan 17, 2020 - 11:20 PM EST / 2020.01.18 0420 UTC
Wind: from the SW (230 degrees) at 16 MPH (14 KT):0
Visibility: greater than 7 mile(s):0
Sky conditions: overcast
Temperature: 42 F (6 C)
Dew Point: 41 F (5 C)
Relative Humidity: 93%
Pressure (altimeter): 29.88 in. Hg (1012 hPa)
ob: ESMS 180420Z 23014KT 9999 BKN010 BKN020 OVC037 06/05 Q1012 R17/19//95
cycle: 4

Station Type Date Time Source
ESMS TAF 2020/01/17 18:18 UTC NOAA

TAF TAF ESMS 171711Z 1718/1818 18012KT 9999 FEW030
TEMPO 1720/1722 2000 BR
BECMG 1722/1724 2000 -RADZ BR BKN003
TEMPO 1800/1804 6000 NSW BKN012
BECMG 1804/1806 8000 NSW BKN020
TEMPO 1808/1812 BKN012
TEMPO 1816/1818 SHRA BKN010 BKN020CB

Example: see airport list